Time;durP1;ratioP1;P1;durP2;ratioP2;P2;SDS_P1;SDS_P2;PMS_P1;PMS_P2;Temp;Humidity;BMP_temperature;BMP_pressure;BME280_temperature;BME280_humidity;BME280_pressure;Samples;Min_cycle;Max_cycle;Signal;HPM_P1;HPM_P2
2022/07/18 00:02:17;;;;;;;;;11.75;11.75;;;;;25.76;30.93;101975.28;5092794;27;49960;-66
2022/07/18 00:04:43;;;;;;;;;16.25;15.00;;;;;25.81;30.87;101988.63;5092533;27;49837;-66
2022/07/18 00:07:10;;;;;;;;;16.75;15.50;;;;;25.82;30.67;101987.72;5092665;27;49745;-64
2022/07/18 00:09:36;;;;;;;;;20.75;18.25;;;;;25.78;30.50;101986.91;5092355;27;49739;-66
2022/07/18 00:12:03;;;;;;;;;18.00;17.50;;;;;25.64;31.02;101979.09;5092478;27;49499;-64
2022/07/18 00:14:28;;;;;;;;;25.50;21.00;;;;;25.52;30.94;101965.94;5090433;27;50635;-67
2022/07/18 00:16:54;;;;;;;;;23.00;22.50;;;;;25.53;30.80;101966.81;5091511;27;49686;-67
2022/07/18 00:19:19;;;;;;;;;24.00;21.25;;;;;25.61;30.77;101978.28;5092153;27;50116;-65
2022/07/18 00:21:45;;;;;;;;;21.75;21.00;;;;;25.58;30.87;101981.94;5093460;27;49819;-67
2022/07/18 00:24:10;;;;;;;;;25.50;20.00;;;;;25.57;31.34;101984.63;5092462;27;50187;-66
2022/07/18 00:26:36;;;;;;;;;29.75;28.75;;;;;25.55;31.26;101975.72;5093711;27;49760;-67
2022/07/18 00:29:01;;;;;;;;;24.00;23.25;;;;;25.47;31.31;101977.69;5094151;27;49783;-67
2022/07/18 00:31:27;;;;;;;;;24.50;21.50;;;;;25.45;31.29;101979.53;5095327;27;49903;-67
2022/07/18 00:33:52;;;;;;;;;27.50;22.25;;;;;25.39;31.67;101981.47;5095356;27;50609;-67
2022/07/18 00:36:18;;;;;;;;;23.00;21.00;;;;;25.36;31.95;101981.50;5094992;27;49725;-68
2022/07/18 00:38:43;;;;;;;;;24.00;20.75;;;;;25.36;32.60;101975.25;5095103;27;50217;-67
2022/07/18 00:41:09;;;;;;;;;29.25;23.00;;;;;25.28;32.17;101970.03;5093581;27;50033;-65
2022/07/18 00:43:34;;;;;;;;;26.50;24.25;;;;;25.26;31.97;101973.66;5094525;27;49822;-67
2022/07/18 00:45:59;;;;;;;;;26.50;24.75;;;;;25.21;32.22;101973.78;5108794;27;49913;-64
2022/07/18 00:48:25;;;;;;;;;30.50;26.75;;;;;25.04;31.75;101949.94;5097468;27;49645;-66
2022/07/18 00:50:51;;;;;;;;;26.25;24.00;;;;;25.04;32.44;101957.13;5097240;27;49827;-65
2022/07/18 00:53:16;;;;;;;;;22.50;19.50;;;;;25.12;32.29;101976.66;5096965;27;49603;-66
2022/07/18 00:55:44;;;;;;;;;24.50;23.25;;;;;25.06;32.36;101961.53;5097075;27;49818;-66
2022/07/18 00:58:11;;;;;;;;;32.25;28.00;;;;;25.05;32.62;101970.50;5096994;27;49851;-63
2022/07/18 01:03:21;;;;;;;;;31.75;25.75;;;;;24.98;32.75;101970.63;5097002;27;49756;-66
2022/07/18 01:05:47;;;;;;;;;26.00;25.00;;;;;24.95;32.76;101963.53;5097076;27;49820;-66
2022/07/18 01:08:13;;;;;;;;;26.00;24.50;;;;;24.94;32.62;101961.75;5096980;27;49921;-66
2022/07/18 01:10:39;;;;;;;;;21.75;20.75;;;;;24.95;32.28;101966.19;5097035;27;49645;-66
2022/07/18 01:13:04;;;;;;;;;23.00;22.50;;;;;24.77;33.05;101939.72;5095040;27;51781;-66
2022/07/18 01:15:30;;;;;;;;;23.75;23.50;;;;;24.88;32.67;101959.19;5097041;27;49607;-64
2022/07/18 01:17:55;;;;;;;;;21.00;20.75;;;;;24.85;33.14;101953.88;5096962;27;49651;-66
2022/07/18 01:20:21;;;;;;;;;18.50;17.50;;;;;24.82;33.05;101959.31;5096927;27;49512;-66
2022/07/18 01:22:46;;;;;;;;;8.00;4.00;;;;;24.77;33.51;101969.25;5096529;27;49802;-66
2022/07/18 01:25:14;;;;;;;;;22.75;20.25;;;;;24.69;33.32;101966.69;5096820;27;49631;-64
2022/07/18 01:27:40;;;;;;;;;25.25;20.50;;;;;24.66;33.16;101958.72;5095809;27;49770;-64
2022/07/18 01:30:06;;;;;;;;;25.00;22.75;;;;;24.72;32.62;101982.78;5095367;27;49886;-68
2022/07/18 01:32:31;;;;;;;;;32.25;24.75;;;;;24.67;32.99;101973.03;5095248;27;51914;-67
2022/07/18 01:34:57;;;;;;;;;26.00;23.00;;;;;24.66;33.16;101976.63;5096223;27;49759;-68
2022/07/18 01:37:22;;;;;;;;;22.50;22.25;;;;;24.55;33.06;101944.59;5096461;27;49742;-68
2022/07/18 01:39:48;;;;;;;;;26.25;26.00;;;;;24.64;33.64;101959.66;5096719;27;49897;-68
2022/07/18 01:42:14;;;;;;;;;23.25;20.50;;;;;24.56;33.61;101949.06;5095725;27;50793;-68
2022/07/18 01:44:40;;;;;;;;;23.25;21.25;;;;;24.66;33.28;101958.72;5096419;27;49513;-68
2022/07/18 01:47:08;;;;;;;;;21.25;21.25;;;;;24.69;33.09;101960.44;5096525;27;49774;-67
2022/07/18 01:49:34;;;;;;;;;22.75;21.00;;;;;24.69;33.45;101960.44;5096575;27;49917;-66
2022/07/18 01:52:00;;;;;;;;;21.00;20.25;;;;;24.66;33.40;101956.03;5094819;27;51525;-67
2022/07/18 01:54:29;;;;;;;;;25.00;23.75;;;;;24.56;33.72;101938.31;5096336;27;49660;-67
2022/07/18 01:56:55;;;;;;;;;23.75;21.50;;;;;24.56;33.44;101938.31;5096108;27;49969;-67
2022/07/18 01:59:22;;;;;;;;;23.00;20.25;;;;;24.33;33.97;101897.59;5096407;27;49858;-65
2022/07/18 02:01:47;;;;;;;;;24.25;24.25;;;;;24.55;34.03;101934.75;5095975;27;49737;-66
2022/07/18 02:04:13;;;;;;;;;20.00;18.00;;;;;24.48;33.94;101930.41;5096207;27;49800;-67
2022/07/18 02:06:39;;;;;;;;;25.75;22.50;;;;;24.50;34.00;101936.63;5096317;27;49643;-67
2022/07/18 02:09:06;;;;;;;;;21.00;20.00;;;;;24.34;34.01;101915.47;5096106;27;49919;-65
2022/07/18 02:11:32;;;;;;;;;20.50;19.00;;;;;24.30;34.55;101925.31;5095374;27;49755;-66
2022/07/18 02:13:57;;;;;;;;;21.75;17.50;;;;;24.22;34.01;101941.59;5095912;27;49731;-66
2022/07/18 02:16:23;;;;;;;;;24.50;21.00;;;;;24.16;34.06;101944.34;5095901;27;49658;-68
2022/07/18 02:18:48;;;;;;;;;21.25;21.00;;;;;24.19;33.99;101946.97;5095825;27;49846;-67
2022/07/18 02:21:14;;;;;;;;;20.50;19.75;;;;;23.94;34.07;101919.69;5099376;27;49642;-67
2022/07/18 02:23:40;;;;;;;;;29.00;24.75;;;;;24.13;34.16;101927.44;5094406;27;49652;-67
2022/07/18 02:26:06;;;;;;;;;22.00;20.00;;;;;24.22;34.16;101936.22;5095562;27;49879;-68
2022/07/18 02:28:31;;;;;;;;;23.50;21.50;;;;;24.06;34.20;101915.03;5095505;27;49606;-67
2022/07/18 02:30:56;;;;;;;;;28.50;25.75;;;;;24.19;34.06;101946.09;5095323;27;49794;-67
2022/07/18 02:33:22;;;;;;;;;24.50;22.25;;;;;24.16;33.94;101941.69;5095262;27;49515;-67
2022/07/18 02:35:47;;;;;;;;;29.50;25.75;;;;;24.14;34.39;101943.50;5095522;27;49726;-67
2022/07/18 02:38:12;;;;;;;;;27.75;25.50;;;;;23.99;34.29;101928.53;5096651;27;49798;-69
2022/07/18 02:40:38;;;;;;;;;28.25;25.00;;;;;24.06;34.24;101948.09;5095130;27;49723;-68
2022/07/18 02:43:03;;;;;;;;;29.00;25.75;;;;;23.89;34.37;101921.53;5111920;27;49717;-68
2022/07/18 02:45:29;;;;;;;;;35.25;31.50;;;;;23.96;34.56;101928.59;5115953;27;49714;-66
2022/07/18 02:47:55;;;;;;;;;37.50;30.25;;;;;23.94;34.75;101929.53;5113785;27;49861;-67
2022/07/18 02:50:21;;;;;;;;;30.50;24.75;;;;;23.94;34.98;101941.16;5115631;27;49828;-67
2022/07/18 02:52:46;;;;;;;;;23.75;22.00;;;;;23.89;34.44;101945.69;5115456;27;50020;-67
2022/07/18 02:55:13;;;;;;;;;34.50;28.00;;;;;23.88;34.80;101951.97;5114157;27;49704;-67
2022/07/18 02:57:40;;;;;;;;;21.25;20.75;;;;;23.81;34.73;101962.78;5110912;27;49899;-67
2022/07/18 03:00:10;;;;;;;;;25.75;21.25;;;;;23.80;34.92;101953.88;5094802;27;50497;-68
2022/07/18 03:02:36;;;;;;;;;25.50;24.00;;;;;23.82;34.83;101957.41;5094791;27;49801;-67
2022/07/18 03:05:02;;;;;;;;;24.75;21.50;;;;;23.84;34.61;101944.00;5095074;27;49661;-67
2022/07/18 03:07:27;;;;;;;;;20.25;19.75;;;;;23.90;34.85;101959.97;5112558;27;49946;-69
2022/07/18 03:09:53;;;;;;;;;18.50;17.50;;;;;23.91;34.68;101959.06;5094563;27;50851;-65
2022/07/18 03:12:18;;;;;;;;;19.00;18.25;;;;;23.89;34.70;101951.03;5094510;27;49969;-67
2022/07/18 03:14:43;;;;;;;;;22.25;20.50;;;;;23.91;34.93;101949.22;5094891;27;49740;-67
2022/07/18 03:17:09;;;;;;;;;23.75;19.25;;;;;23.92;34.92;101937.59;5094949;27;49586;-67
2022/07/18 03:19:35;;;;;;;;;18.50;17.50;;;;;23.91;35.03;101926.88;5110031;27;49647;-68
2022/07/18 03:22:01;;;;;;;;;22.75;22.50;;;;;23.89;34.92;101929.59;5115037;27;49716;-67
2022/07/18 03:24:26;;;;;;;;;18.25;17.75;;;;;23.80;35.24;101935.09;5112584;27;49718;-67
2022/07/18 03:26:51;;;;;;;;;21.25;20.00;;;;;23.61;35.13;101926.44;5094656;27;49718;-67
2022/07/18 03:29:17;;;;;;;;;20.50;19.25;;;;;23.53;35.02;101924.75;5094461;27;51501;-67
2022/07/18 03:31:42;;;;;;;;;19.75;18.25;;;;;23.62;35.13;101943.41;5094272;27;49652;-67
2022/07/18 03:34:07;;;;;;;;;27.25;24.75;;;;;23.62;35.05;101930.00;5094648;27;49787;-67
2022/07/18 03:36:33;;;;;;;;;28.50;23.75;;;;;23.52;35.32;101909.56;5113631;27;49796;-67
2022/07/18 03:38:58;;;;;;;;;23.50;19.75;;;;;23.59;35.33;101927.38;5114648;27;49855;-67
2022/07/18 03:41:24;;;;;;;;;27.75;25.50;;;;;23.46;35.45;101921.28;5113856;27;49766;-65
2022/07/18 03:43:49;;;;;;;;;19.75;18.75;;;;;23.34;35.71;101911.59;5113941;27;49670;-64
2022/07/18 03:46:14;;;;;;;;;22.50;19.50;;;;;23.04;35.73;101862.00;5097190;27;49712;-64
2022/07/18 03:48:40;;;;;;;;;22.50;21.75;;;;;23.38;35.94;101913.34;5094010;27;49824;-65
2022/07/18 03:51:05;;;;;;;;;23.25;22.50;;;;;23.40;35.88;101924.94;5093967;27;49639;-65
2022/07/18 03:53:31;;;;;;;;;24.25;21.75;;;;;23.34;36.04;101935.72;5094296;27;49861;-64
2022/07/18 03:55:56;;;;;;;;;24.25;22.75;;;;;23.29;36.10;101942.06;5107676;27;49650;-65
2022/07/18 03:58:22;;;;;;;;;24.50;20.50;;;;;23.00;36.40;101918.31;5113772;27;52768;-65
2022/07/18 04:00:48;;;;;;;;;18.75;18.75;;;;;23.21;36.22;101947.50;5114262;27;49777;-64
2022/07/18 04:03:13;;;;;;;;;22.00;20.50;;;;;23.25;36.23;101941.19;5098333;27;49750;-66
2022/07/18 04:05:39;;;;;;;;;21.75;18.75;;;;;23.26;36.08;101937.63;5093990;27;49577;-64
2022/07/18 04:08:04;;;;;;;;;24.00;23.00;;;;;23.24;36.14;101936.75;5093973;27;50801;-65
2022/07/18 04:10:30;;;;;;;;;23.00;21.00;;;;;23.18;36.12;101925.25;5093752;27;49799;-65
2022/07/18 04:12:56;;;;;;;;;26.50;25.25;;;;;23.26;36.14;101945.69;5106009;27;49650;-65
2022/07/18 04:15:24;;;;;;;;;33.00;26.75;;;;;23.19;36.42;101927.91;5114281;27;49783;-66
2022/07/18 04:17:50;;;;;;;;;34.25;25.00;;;;;23.24;36.18;101942.09;5114458;27;49496;-65
2022/07/18 04:20:17;;;;;;;;;25.25;22.75;;;;;23.28;35.84;101942.97;5114761;27;49785;-67
2022/07/18 04:22:51;;;;;;;;;34.25;28.25;;;;;23.32;35.62;101942.00;5104558;27;49812;-65
2022/07/18 04:25:18;;;;;;;;;25.75;22.50;;;;;23.36;35.62;101928.56;5094103;27;49640;-67
2022/07/18 04:27:44;;;;;;;;;36.25;31.00;;;;;23.34;35.60;101918.75;5092128;27;49612;-66
2022/07/18 04:30:10;;;;;;;;;34.75;28.00;;;;;23.27;35.75;101923.34;5093721;27;49605;-66
2022/07/18 04:32:36;;;;;;;;;30.25;25.75;;;;;23.35;35.62;101920.53;5102813;27;49695;-67
2022/07/18 04:35:02;;;;;;;;;24.75;21.00;;;;;23.42;35.52;101919.53;5114417;27;49881;-65
2022/07/18 04:37:31;;;;;;;;;22.25;19.25;;;;;23.50;35.31;101916.75;5114094;27;50498;-65
2022/07/18 04:39:56;;;;;;;;;21.25;19.50;;;;;23.55;35.53;101904.19;5114175;27;49716;-67
2022/07/18 04:42:22;;;;;;;;;20.25;20.25;;;;;23.39;35.42;101882.97;5100287;27;49909;-66
2022/07/18 04:44:47;;;;;;;;;18.00;16.50;;;;;23.46;35.17;101904.31;5106687;27;49742;-67
2022/07/18 04:47:12;;;;;;;;;17.25;14.50;;;;;23.47;35.52;101912.34;5113615;27;50295;-67
2022/07/18 04:49:38;;;;;;;;;17.25;16.00;;;;;23.43;35.45;101895.41;5111792;27;49825;-66
2022/07/18 04:52:03;;;;;;;;;18.25;17.25;;;;;23.57;35.40;101894.34;5110431;27;49707;-68
2022/07/18 04:54:29;;;;;;;;;21.00;16.75;;;;;23.60;35.58;101886.25;5093451;27;49695;-66
2022/07/18 04:56:54;;;;;;;;;21.25;18.00;;;;;23.54;35.66;101878.28;5092996;27;49726;-67
2022/07/18 04:59:19;;;;;;;;;17.25;16.25;;;;;23.50;35.63;101882.81;5093264;27;49635;-65
2022/07/18 05:01:45;;;;;;;;;21.50;18.75;;;;;23.28;35.71;101855.44;5093745;27;49814;-67
2022/07/18 05:04:10;;;;;;;;;17.50;15.50;;;;;23.46;35.99;101881.09;5094175;27;49693;-65
2022/07/18 05:06:35;;;;;;;;;19.75;19.75;;;;;23.39;35.96;101852.59;5093037;27;50863;-67
2022/07/18 05:09:01;;;;;;;;;15.75;15.75;;;;;23.48;36.06;101846.22;5093176;27;49870;-66
2022/07/18 05:11:26;;;;;;;;;19.50;18.50;;;;;23.67;36.38;101853.97;5099303;27;49794;-66
2022/07/18 05:13:51;;;;;;;;;15.25;15.25;;;;;23.63;36.05;101838.84;5095303;27;49783;-68
2022/07/18 05:16:17;;;;;;;;;20.75;20.00;;;;;23.73;36.28;101838.69;5092906;27;58415;-67
2022/07/18 05:18:42;;;;;;;;;19.75;18.00;;;;;23.68;36.48;101833.41;5097057;27;49793;-65
2022/07/18 05:21:07;;;;;;;;;16.25;16.00;;;;;23.65;36.45;101844.22;5108750;27;49632;-66
2022/07/18 05:23:33;;;;;;;;;20.50;18.50;;;;;23.47;36.83;101839.97;5096785;27;49595;-66
2022/07/18 05:25:58;;;;;;;;;38.75;27.50;;;;;23.41;37.12;101867.75;5096360;27;49734;-66
2022/07/18 05:28:24;;;;;;;;;23.25;16.00;;;;;23.02;37.12;101846.88;5096313;27;49761;-68
2022/07/18 05:30:49;;;;;;;;;21.00;18.75;;;;;23.36;37.07;101900.91;5105118;27;49635;-65
2022/07/18 05:33:14;;;;;;;;;23.50;14.75;;;;;23.24;37.84;101896.56;5116558;27;49903;-66
2022/07/18 05:35:40;;;;;;;;;33.50;25.50;;;;;23.31;37.89;101906.31;5116919;27;49619;-66
2022/07/18 05:38:05;;;;;;;;;31.50;23.00;;;;;23.41;37.81;101905.25;5116924;27;49684;-65
2022/07/18 05:40:31;;;;;;;;;26.75;20.75;;;;;23.54;37.05;101897.91;5116588;27;49715;-65
2022/07/18 05:42:56;;;;;;;;;18.50;15.75;;;;;23.69;36.90;101902.22;5080078;27;49744;-65
2022/07/18 05:45:25;;;;;;;;;16.00;15.00;;;;;23.77;36.75;101908.34;5095649;27;49830;-66
2022/07/18 05:47:52;;;;;;;;;18.50;14.75;;;;;23.75;36.40;101902.13;5096315;27;49643;-65
2022/07/18 05:50:17;;;;;;;;;21.50;18.25;;;;;23.77;36.18;101913.72;5096387;27;49677;-67
2022/07/18 05:52:42;;;;;;;;;22.25;18.75;;;;;23.71;36.32;101911.09;5114701;27;49570;-66
2022/07/18 05:55:08;;;;;;;;;17.50;12.50;;;;;23.83;35.92;101910.03;5116605;27;49763;-66
2022/07/18 05:57:35;;;;;;;;;22.00;14.75;;;;;23.83;35.71;101902.88;5115985;27;50243;-66
2022/07/18 06:00:00;;;;;;;;;13.50;13.50;;;;;;;;5116745;27;49918;-65
2022/07/18 06:02:25;;;;;;;;;14.25;11.00;;;;;24.18;35.20;101894.22;5100586;27;50070;-70
2022/07/18 06:04:51;;;;;;;;;21.75;17.25;;;;;24.27;35.31;101885.13;5094583;27;52946;-68
2022/07/18 06:07:16;;;;;;;;;21.25;14.75;;;;;24.36;34.96;101898.41;5095896;27;49827;-68
2022/07/18 06:09:41;;;;;;;;;18.50;13.75;;;;;24.23;34.86;101891.50;5095510;27;49889;-67
2022/07/18 06:12:08;;;;;;;;;18.00;16.00;;;;;24.37;35.04;101896.63;5107014;27;49742;-74
2022/07/18 06:14:33;;;;;;;;;16.25;13.75;;;;;24.43;34.95;101900.09;5099353;27;49672;-66
2022/07/18 06:16:59;;;;;;;;;13.25;11.75;;;;;24.41;34.38;101883.09;5095842;27;49786;-67
2022/07/18 06:19:25;;;;;;;;;13.25;11.25;;;;;24.62;34.03;101895.25;5095974;27;50202;-66
2022/07/18 06:21:50;;;;;;;;;10.50;10.50;;;;;24.68;34.00;101886.19;5099950;27;50067;-69
2022/07/18 06:24:15;;;;;;;;;12.75;11.50;;;;;24.62;34.18;101871.09;5095640;27;49818;-68
2022/07/18 06:26:41;;;;;;;;;12.00;10.00;;;;;24.78;34.42;101895.81;5095696;27;49890;-69
2022/07/18 06:29:06;;;;;;;;;11.00;10.00;;;;;24.77;33.69;101894.06;5097056;27;50008;-69
2022/07/18 06:31:31;;;;;;;;;9.75;9.75;;;;;24.47;34.00;101847.22;5116484;27;49631;-69
2022/07/18 06:33:57;;;;;;;;;14.50;13.75;;;;;24.71;33.90;101902.25;5115581;27;49575;-69
2022/07/18 06:36:23;;;;;;;;;16.50;10.75;;;;;24.75;33.76;101912.00;5116133;27;49555;-69
2022/07/18 06:38:51;;;;;;;;;14.00;12.25;;;;;24.54;34.33;101859.63;5116275;27;49651;-69
2022/07/18 06:41:18;;;;;;;;;17.00;16.00;;;;;24.78;33.95;101910.13;5115731;27;49696;-69
2022/07/18 06:43:43;;;;;;;;;16.75;12.00;;;;;24.91;33.72;101891.09;5109336;27;49797;-70
2022/07/18 06:46:08;;;;;;;;;16.00;14.00;;;;;25.10;34.44;101893.41;5103914;27;49655;-70
2022/07/18 06:48:35;;;;;;;;;23.75;15.75;;;;;25.19;33.80;101895.00;5105581;27;49558;-70
2022/07/18 06:51:01;;;;;;;;;11.25;11.25;;;;;25.05;33.44;101878.28;5114255;27;49863;-69
2022/07/18 06:53:27;;;;;;;;;12.75;11.00;;;;;25.23;33.94;101903.88;5095130;27;50504;-69
2022/07/18 06:55:53;;;;;;;;;16.25;13.00;;;;;25.03;33.69;101872.06;5114777;27;49718;-70
2022/07/18 06:58:18;;;;;;;;;15.25;10.25;;;;;25.48;33.26;101918.53;5094615;27;49816;-68
2022/07/18 07:00:43;;;;;;;;;11.00;10.75;;;;;25.54;33.10;101907.63;5095215;27;49537;-67
2022/07/18 07:03:09;;;;;;;;;16.00;13.00;;;;;25.61;33.04;101906.56;5094872;27;50564;-68
2022/07/18 07:05:34;;;;;;;;;13.75;11.75;;;;;25.76;32.69;101916.09;5095151;27;49799;-67
2022/07/18 07:07:59;;;;;;;;;12.00;11.25;;;;;25.74;32.78;101912.56;5095016;27;49500;-68
2022/07/18 07:10:25;;;;;;;;;12.25;11.25;;;;;25.77;32.49;101912.50;5095047;27;49529;-68
2022/07/18 07:12:51;;;;;;;;;12.00;11.00;;;;;25.82;32.46;101894.44;5094863;27;49968;-67
2022/07/18 07:15:21;;;;;;;;;12.50;10.50;;;;;25.96;32.66;101907.53;5085042;27;49758;-67
2022/07/18 07:17:48;;;;;;;;;9.00;9.00;;;;;25.92;32.46;101909.44;5080576;27;49868;-66
2022/07/18 07:20:14;;;;;;;;;10.25;9.00;;;;;25.98;32.57;101883.31;5115735;27;49874;-67
2022/07/18 07:22:53;;;;;;;;;10.50;10.25;;;;;26.03;32.17;101894.81;5107436;27;49789;-66
2022/07/18 07:25:21;;;;;;;;;15.00;11.75;;;;;26.07;31.73;101904.59;5094638;27;49536;-66
2022/07/18 07:27:46;;;;;;;;;13.50;9.50;;;;;26.07;31.61;101889.34;5094750;27;49639;-66
2022/07/18 07:30:13;;;;;;;;;12.00;10.25;;;;;26.23;31.43;101901.47;5094653;27;49720;-68
2022/07/18 07:32:40;;;;;;;;;17.00;15.50;;;;;26.29;32.26;101899.53;5093585;27;50486;-67
2022/07/18 07:35:10;;;;;;;;;12.00;12.00;;;;;26.41;31.60;101899.25;5094365;27;49811;-67
2022/07/18 07:37:35;;;;;;;;;18.50;14.25;;;;;26.55;31.67;101897.06;5094409;27;50041;-67
2022/07/18 07:40:01;;;;;;;;;17.75;13.50;;;;;26.56;31.55;101887.19;5094190;27;50009;-67
2022/07/18 07:42:26;;;;;;;;;19.75;14.25;;;;;26.60;31.49;101865.50;5094044;27;49676;-67
2022/07/18 07:44:52;;;;;;;;;13.00;10.50;;;;;26.80;31.74;101881.97;5094207;27;49834;-67
2022/07/18 07:47:17;;;;;;;;;14.50;10.75;;;;;26.85;31.15;101875.56;5094357;27;49656;-66
2022/07/18 07:49:42;;;;;;;;;12.00;11.25;;;;;26.95;31.29;101875.25;5093127;27;49922;-67
2022/07/18 07:52:08;;;;;;;;;11.00;10.00;;;;;27.04;31.19;101876.84;5093933;27;50606;-68
2022/07/18 07:54:33;;;;;;;;;10.50;8.75;;;;;27.05;30.88;101854.34;5094364;27;49583;-67
2022/07/18 07:56:59;;;;;;;;;6.00;6.00;;;;;27.26;31.39;101875.22;5094587;27;49857;-67
2022/07/18 07:59:25;;;;;;;;;11.50;7.25;;;;;27.27;30.78;101855.44;5109664;27;49831;-67
2022/07/18 08:01:50;;;;;;;;;14.25;10.50;;;;;27.38;30.54;101865.88;5094076;27;50474;-68
2022/07/18 08:04:15;;;;;;;;;13.50;12.75;;;;;27.04;30.48;101802.25;5094124;27;49850;-67
2022/07/18 08:06:41;;;;;;;;;12.00;9.50;;;;;27.43;30.45;101866.63;5094264;27;50245;-67
2022/07/18 08:09:08;;;;;;;;;11.00;11.00;;;;;27.44;30.03;101848.63;5094099;27;49603;-68
2022/07/18 08:11:33;;;;;;;;;10.00;10.00;;;;;27.64;30.67;101860.53;5093904;27;50429;-67
2022/07/18 08:13:59;;;;;;;;;9.75;7.75;;;;;27.71;29.87;101863.06;5093603;27;49657;-67
2022/07/18 08:16:24;;;;;;;;;13.25;11.75;;;;;27.62;29.68;101846.22;5094206;27;49758;-68
2022/07/18 08:18:49;;;;;;;;;13.50;11.75;;;;;27.84;29.73;101856.31;5094073;27;49949;-68
2022/07/18 08:21:15;;;;;;;;;16.00;13.25;;;;;27.91;29.59;101850.66;5093943;27;50524;-67
2022/07/18 08:23:40;;;;;;;;;10.50;10.50;;;;;27.84;29.57;101818.53;5094019;27;49795;-68
2022/07/18 08:26:05;;;;;;;;;12.25;9.00;;;;;27.99;28.97;101827.91;5094134;27;49691;-68
2022/07/18 08:28:31;;;;;;;;;15.00;12.25;;;;;28.08;29.43;101846.47;5094037;27;49599;-67
2022/07/18 08:30:56;;;;;;;;;12.25;10.75;;;;;28.21;29.33;101850.53;5093492;27;50432;-68
2022/07/18 08:33:21;;;;;;;;;7.75;7.25;;;;;28.15;29.23;101837.25;5093613;27;49966;-67
2022/07/18 08:35:47;;;;;;;;;10.75;9.25;;;;;28.31;28.70;101856.53;5093926;27;49620;-66
2022/07/18 08:38:12;;;;;;;;;11.00;9.50;;;;;28.28;29.26;101841.31;5094104;27;49782;-67
2022/07/18 08:40:38;;;;;;;;;14.75;10.75;;;;;28.43;29.25;101867.75;5088578;27;49668;-67
2022/07/18 08:43:03;;;;;;;;;10.50;9.75;;;;;28.40;28.82;101848.09;5100693;27;49746;-68
2022/07/18 08:45:29;;;;;;;;;11.25;11.25;;;;;28.54;28.40;101863.78;5114248;27;49938;-67
2022/07/18 08:47:55;;;;;;;;;4.25;3.00;;;;;28.60;28.96;101863.56;5092023;27;49782;-67
2022/07/18 08:50:22;;;;;;;;;12.75;11.75;;;;;28.59;28.72;101859.97;5114002;27;50544;-67
2022/07/18 08:52:49;;;;;;;;;13.50;12.25;;;;;28.63;28.54;101848.09;5108399;27;49813;-67
2022/07/18 08:55:14;;;;;;;;;8.25;8.25;;;;;28.71;28.82;101856.81;5117825;27;49649;-67
2022/07/18 08:57:40;;;;;;;;;13.00;11.75;;;;;28.59;29.04;101832.09;5117873;27;49975;-66
2022/07/18 09:00:09;;;;;;;;;10.25;7.75;;;;;28.70;28.82;101843.38;5117341;27;49634;-67
2022/07/18 09:02:35;;;;;;;;;12.75;10.00;;;;;28.64;28.09;101827.38;5103548;27;49739;-67
2022/07/18 09:05:03;;;;;;;;;14.00;10.25;;;;;28.80;28.50;101850.19;5096791;27;49684;-67
2022/07/18 09:07:31;;;;;;;;;10.00;9.00;;;;;28.83;28.32;101851.88;5097200;27;49856;-66
2022/07/18 09:09:59;;;;;;;;;10.25;8.75;;;;;28.86;28.20;101843.69;5096527;27;50662;-67
2022/07/18 09:12:26;;;;;;;;;8.00;8.00;;;;;28.74;28.41;101832.38;5096749;27;49721;-67
2022/07/18 09:14:51;;;;;;;;;11.75;10.00;;;;;28.91;28.36;101853.38;5099264;27;49656;-67
2022/07/18 09:17:22;;;;;;;;;12.25;10.00;;;;;28.93;28.18;101854.19;5095262;27;49957;-67
2022/07/18 09:20:05;;;;;;;;;9.00;9.00;;;;;28.98;28.09;101852.22;5098231;27;49656;-68
2022/07/18 09:22:36;;;;;;;;;8.25;8.25;;;;;28.96;27.96;101843.28;5094648;27;49794;-67
2022/07/18 09:25:24;;;;;;;;;7.00;7.00;;;;;29.01;27.80;101848.50;5096697;27;49651;-67
2022/07/18 09:27:53;;;;;;;;;8.75;8.75;;;;;29.00;27.81;101850.31;5095747;27;49672;-67
2022/07/18 09:30:25;;;;;;;;;9.50;7.75;;;;;29.03;27.61;101849.31;5096290;27;50439;-72
2022/07/18 09:33:03;;;;;;;;;9.00;9.00;;;;;29.08;27.61;101852.75;5096348;27;49758;-69
2022/07/18 09:35:42;;;;;;;;;12.00;12.00;;;;;29.08;26.34;101850.91;5096475;27;49660;-70
2022/07/18 09:38:09;;;;;;;;;11.50;10.50;;;;;29.21;27.34;101854.00;5097828;27;49813;-70
2022/07/18 09:40:43;;;;;;;;;12.25;12.25;;;;;29.20;27.28;101848.66;5098129;27;50662;-69
2022/07/18 09:43:11;;;;;;;;;9.50;9.25;;;;;29.25;27.25;101852.09;5099151;27;49918;-77
2022/07/18 09:45:39;;;;;;;;;15.00;11.00;;;;;29.31;27.05;101857.22;5098546;27;49689;-74
2022/07/18 09:48:17;;;;;;;;;7.75;7.25;;;;;29.36;27.27;101855.22;5095206;27;49916;-68
2022/07/18 09:50:51;;;;;;;;;10.75;9.50;;;;;29.46;26.13;101851.22;5081939;27;49726;-67
2022/07/18 09:53:23;;;;;;;;;8.75;8.75;;;;;29.55;25.67;101853.56;5095884;27;49840;-67
2022/07/18 09:56:04;;;;;;;;;9.75;9.75;;;;;29.64;26.43;101850.50;5111107;27;49946;-67
2022/07/18 09:58:33;;;;;;;;;13.75;10.75;;;;;29.61;26.93;101825.34;5075734;27;50128;-66
2022/07/18 10:01:01;;;;;;;;;11.00;11.00;;;;;29.80;25.78;101839.88;5075239;27;50512;-66
2022/07/18 10:03:27;;;;;;;;;8.75;7.50;;;;;29.87;25.97;101838.69;5076431;27;51381;-65
2022/07/18 10:05:55;;;;;;;;;10.00;8.25;;;;;29.94;27.11;101836.59;5083400;27;49980;-64
2022/07/18 10:08:24;;;;;;;;;8.50;8.50;;;;;29.92;27.42;101838.50;5096271;27;49565;-64
2022/07/18 10:10:51;;;;;;;;;8.00;8.00;;;;;29.88;27.25;101826.03;5094237;27;50493;-64
2022/07/18 10:13:18;;;;;;;;;10.50;8.50;;;;;29.85;27.48;101834.28;5095571;27;49777;-64
2022/07/18 10:15:45;;;;;;;;;9.25;7.75;;;;;29.82;27.61;101826.28;5095946;27;49647;-64
2022/07/18 10:18:13;;;;;;;;;6.00;5.00;;;;;29.79;27.82;101829.13;5096174;27;50358;-64
2022/07/18 10:20:44;;;;;;;;;8.00;8.00;;;;;29.76;27.37;101819.31;5095808;27;49830;-63
2022/07/18 10:23:19;;;;;;;;;8.50;7.25;;;;;29.80;25.78;101820.94;5089813;27;49781;-67
2022/07/18 10:26:14;;;;;;;;;6.50;6.00;;;;;29.83;26.23;101818.13;5110592;27;49964;-64
2022/07/18 10:28:54;;;;;;;;;7.50;7.50;;;;;29.95;26.45;101824.81;5092029;27;49958;-67
2022/07/18 10:31:20;;;;;;;;;7.75;7.75;;;;;30.02;27.16;101820.91;5091614;27;50894;-67
2022/07/18 10:33:48;;;;;;;;;14.00;8.50;;;;;30.14;25.93;101816.81;5094026;27;49834;-67
2022/07/18 10:36:17;;;;;;;;;1.00;0.00;;;;;30.15;26.18;101810.44;5093698;27;50128;-67
2022/07/18 10:39:04;;;;;;;;;9.00;9.00;;;;;30.24;26.72;101811.84;5093986;27;49847;-67
2022/07/18 10:41:30;;;;;;;;;7.00;6.50;;;;;30.13;26.95;101796.97;5086642;27;50622;-64
2022/07/18 10:43:55;;;;;;;;;8.00;8.00;;;;;30.12;26.98;101797.03;5093380;27;49778;-63
2022/07/18 10:46:21;;;;;;;;;7.00;7.00;;;;;30.20;26.34;101806.56;5093932;27;49608;-66
2022/07/18 10:48:47;;;;;;;;;9.00;9.00;;;;;30.29;25.45;101809.81;5093690;27;49815;-63
2022/07/18 10:51:18;;;;;;;;;8.75;8.75;;;;;30.33;26.70;101808.75;5093407;27;50894;-64
2022/07/18 10:54:01;;;;;;;;;8.00;7.50;;;;;30.31;26.90;101805.22;5093732;27;49859;-64
2022/07/18 10:56:35;;;;;;;;;9.00;9.00;;;;;30.35;26.86;101809.53;5092517;27;49957;-63
2022/07/18 10:59:16;;;;;;;;;5.75;5.75;;;;;30.22;27.15;101798.41;5091544;27;49680;-63
2022/07/18 11:01:49;;;;;;;;;8.50;7.25;;;;;30.34;26.89;101813.22;5093464;27;51036;-64
2022/07/18 11:04:26;;;;;;;;;8.00;8.00;;;;;30.33;26.37;101816.88;5092886;27;49659;-63
2022/07/18 11:06:53;;;;;;;;;12.50;9.75;;;;;30.34;27.08;101803.25;5093376;27;49777;-63
2022/07/18 11:09:46;;;;;;;;;9.75;8.25;;;;;30.34;26.66;101808.66;5093320;27;50046;-65
2022/07/18 11:12:27;;;;;;;;;7.75;7.25;;;;;30.50;25.41;101808.84;5086488;27;49854;-65
2022/07/18 11:15:08;;;;;;;;;13.75;10.75;;;;;30.86;25.18;101814.41;5090879;27;49816;-68